sensor_id;sensor_type;location;lat;lon;timestamp;P1;durP1;ratioP1;P2;durP2;ratioP2
48805;SDS011;34625;47.176;27.548;2023-03-14T00:02:07;6.03;;;3.65;;
48805;SDS011;34625;47.176;27.548;2023-03-14T00:04:33;6.70;;;3.92;;
48805;SDS011;34625;47.176;27.548;2023-03-14T00:06:59;5.88;;;3.45;;
48805;SDS011;34625;47.176;27.548;2023-03-14T00:09:25;6.50;;;3.90;;
48805;SDS011;34625;47.176;27.548;2023-03-14T00:11:55;5.20;;;3.70;;
48805;SDS011;34625;47.176;27.548;2023-03-14T00:14:21;4.32;;;3.28;;
48805;SDS011;34625;47.176;27.548;2023-03-14T00:16:47;4.97;;;3.30;;
48805;SDS011;34625;47.176;27.548;2023-03-14T00:19:13;7.70;;;3.50;;
48805;SDS011;34625;47.176;27.548;2023-03-14T00:21:39;5.53;;;3.05;;
48805;SDS011;34625;47.176;27.548;2023-03-14T00:24:05;5.50;;;3.22;;
48805;SDS011;34625;47.176;27.548;2023-03-14T00:26:32;4.70;;;3.22;;
48805;SDS011;34625;47.176;27.548;2023-03-14T00:28:58;5.32;;;3.40;;
48805;SDS011;34625;47.176;27.548;2023-03-14T00:31:24;3.80;;;3.03;;
48805;SDS011;34625;47.176;27.548;2023-03-14T00:33:51;5.30;;;3.50;;
48805;SDS011;34625;47.176;27.548;2023-03-14T00:36:18;7.32;;;4.00;;
48805;SDS011;34625;47.176;27.548;2023-03-14T00:38:46;4.55;;;3.05;;
48805;SDS011;34625;47.176;27.548;2023-03-14T00:41:15;5.43;;;3.38;;
48805;SDS011;34625;47.176;27.548;2023-03-14T00:43:43;6.13;;;3.80;;
48805;SDS011;34625;47.176;27.548;2023-03-14T00:46:09;6.32;;;4.10;;
48805;SDS011;34625;47.176;27.548;2023-03-14T00:48:38;4.72;;;3.17;;
48805;SDS011;34625;47.176;27.548;2023-03-14T00:51:05;5.97;;;3.75;;
48805;SDS011;34625;47.176;27.548;2023-03-14T00:53:35;4.40;;;3.20;;
48805;SDS011;34625;47.176;27.548;2023-03-14T00:56:03;3.53;;;2.83;;
48805;SDS011;34625;47.176;27.548;2023-03-14T00:58:31;5.18;;;3.63;;
48805;SDS011;34625;47.176;27.548;2023-03-14T01:00:57;4.20;;;3.40;;
48805;SDS011;34625;47.176;27.548;2023-03-14T01:03:24;3.38;;;3.00;;
48805;SDS011;34625;47.176;27.548;2023-03-14T01:05:50;5.30;;;3.40;;
48805;SDS011;34625;47.176;27.548;2023-03-14T01:08:16;4.28;;;3.30;;
48805;SDS011;34625;47.176;27.548;2023-03-14T01:10:42;6.50;;;3.13;;
48805;SDS011;34625;47.176;27.548;2023-03-14T01:13:09;6.15;;;3.60;;
48805;SDS011;34625;47.176;27.548;2023-03-14T01:15:35;5.30;;;3.35;;
48805;SDS011;34625;47.176;27.548;2023-03-14T01:18:02;6.18;;;3.25;;
48805;SDS011;34625;47.176;27.548;2023-03-14T01:20:29;4.18;;;2.40;;
48805;SDS011;34625;47.176;27.548;2023-03-14T01:22:55;3.75;;;2.90;;
48805;SDS011;34625;47.176;27.548;2023-03-14T01:25:21;3.92;;;3.35;;
48805;SDS011;34625;47.176;27.548;2023-03-14T01:27:47;5.07;;;3.35;;
48805;SDS011;34625;47.176;27.548;2023-03-14T01:30:13;5.35;;;3.38;;
48805;SDS011;34625;47.176;27.548;2023-03-14T01:32:40;5.35;;;3.22;;
48805;SDS011;34625;47.176;27.548;2023-03-14T01:35:06;7.05;;;3.22;;
48805;SDS011;34625;47.176;27.548;2023-03-14T01:37:33;4.00;;;3.00;;
48805;SDS011;34625;47.176;27.548;2023-03-14T01:39:59;3.80;;;3.40;;
48805;SDS011;34625;47.176;27.548;2023-03-14T01:42:25;4.50;;;3.40;;
48805;SDS011;34625;47.176;27.548;2023-03-14T01:44:55;4.75;;;3.20;;
48805;SDS011;34625;47.176;27.548;2023-03-14T01:47:23;3.92;;;3.08;;
48805;SDS011;34625;47.176;27.548;2023-03-14T01:49:57;3.03;;;2.40;;
48805;SDS011;34625;47.176;27.548;2023-03-14T01:52:29;5.10;;;3.10;;
48805;SDS011;34625;47.176;27.548;2023-03-14T01:55:09;7.40;;;3.28;;
48805;SDS011;34625;47.176;27.548;2023-03-14T01:57:40;5.35;;;3.00;;
48805;SDS011;34625;47.176;27.548;2023-03-14T02:00:12;4.10;;;3.10;;
48805;SDS011;34625;47.176;27.548;2023-03-14T02:02:48;6.10;;;3.47;;
48805;SDS011;34625;47.176;27.548;2023-03-14T02:05:20;5.53;;;3.47;;
48805;SDS011;34625;47.176;27.548;2023-03-14T02:07:55;5.70;;;3.60;;
48805;SDS011;34625;47.176;27.548;2023-03-14T02:10:30;5.03;;;3.45;;
48805;SDS011;34625;47.176;27.548;2023-03-14T02:13:02;4.65;;;3.40;;
48805;SDS011;34625;47.176;27.548;2023-03-14T02:15:46;4.40;;;3.20;;
48805;SDS011;34625;47.176;27.548;2023-03-14T02:18:31;5.88;;;3.38;;
48805;SDS011;34625;47.176;27.548;2023-03-14T02:21:13;6.20;;;3.60;;
48805;SDS011;34625;47.176;27.548;2023-03-14T02:24:15;5.40;;;3.65;;
48805;SDS011;34625;47.176;27.548;2023-03-14T02:27:13;4.60;;;3.13;;
48805;SDS011;34625;47.176;27.548;2023-03-14T02:29:48;6.22;;;3.45;;
48805;SDS011;34625;47.176;27.548;2023-03-14T02:32:20;4.53;;;3.05;;
48805;SDS011;34625;47.176;27.548;2023-03-14T02:34:49;4.20;;;2.92;;
48805;SDS011;34625;47.176;27.548;2023-03-14T02:37:21;5.65;;;3.92;;
48805;SDS011;34625;47.176;27.548;2023-03-14T02:39:52;4.60;;;3.42;;
48805;SDS011;34625;47.176;27.548;2023-03-14T02:42:19;3.92;;;3.00;;
48805;SDS011;34625;47.176;27.548;2023-03-14T02:44:50;5.32;;;3.40;;
48805;SDS011;34625;47.176;27.548;2023-03-14T02:49:47;4.15;;;3.42;;
48805;SDS011;34625;47.176;27.548;2023-03-14T02:52:14;7.38;;;3.00;;
48805;SDS011;34625;47.176;27.548;2023-03-14T02:54:40;4.25;;;2.95;;
48805;SDS011;34625;47.176;27.548;2023-03-14T02:57:06;5.22;;;2.97;;
48805;SDS011;34625;47.176;27.548;2023-03-14T02:59:32;4.00;;;3.15;;
48805;SDS011;34625;47.176;27.548;2023-03-14T03:04:31;4.80;;;3.25;;
48805;SDS011;34625;47.176;27.548;2023-03-14T03:06:57;3.95;;;3.33;;
48805;SDS011;34625;47.176;27.548;2023-03-14T03:09:23;6.60;;;3.28;;
48805;SDS011;34625;47.176;27.548;2023-03-14T03:11:51;8.70;;;3.85;;
48805;SDS011;34625;47.176;27.548;2023-03-14T03:14:21;4.00;;;3.33;;
48805;SDS011;34625;47.176;27.548;2023-03-14T03:16:47;4.68;;;3.33;;
48805;SDS011;34625;47.176;27.548;2023-03-14T03:19:13;3.05;;;1.92;;
48805;SDS011;34625;47.176;27.548;2023-03-14T03:21:40;11.32;;;3.20;;
48805;SDS011;34625;47.176;27.548;2023-03-14T03:24:06;3.95;;;2.95;;
48805;SDS011;34625;47.176;27.548;2023-03-14T03:26:34;7.18;;;3.30;;
48805;SDS011;34625;47.176;27.548;2023-03-14T03:29:03;3.53;;;3.03;;
48805;SDS011;34625;47.176;27.548;2023-03-14T03:31:29;8.05;;;3.08;;
48805;SDS011;34625;47.176;27.548;2023-03-14T03:33:56;7.20;;;3.47;;
48805;SDS011;34625;47.176;27.548;2023-03-14T03:36:24;6.45;;;3.33;;
48805;SDS011;34625;47.176;27.548;2023-03-14T03:38:51;4.85;;;3.42;;
48805;SDS011;34625;47.176;27.548;2023-03-14T03:41:17;4.90;;;3.55;;
48805;SDS011;34625;47.176;27.548;2023-03-14T03:43:43;8.77;;;3.13;;
48805;SDS011;34625;47.176;27.548;2023-03-14T03:46:12;4.75;;;3.38;;
48805;SDS011;34625;47.176;27.548;2023-03-14T03:48:38;5.75;;;3.55;;
48805;SDS011;34625;47.176;27.548;2023-03-14T03:51:05;7.18;;;3.20;;
48805;SDS011;34625;47.176;27.548;2023-03-14T03:53:32;5.78;;;3.20;;
48805;SDS011;34625;47.176;27.548;2023-03-14T03:55:59;3.75;;;2.53;;
48805;SDS011;34625;47.176;27.548;2023-03-14T03:58:26;6.40;;;3.58;;
48805;SDS011;34625;47.176;27.548;2023-03-14T04:00:52;6.18;;;3.55;;
48805;SDS011;34625;47.176;27.548;2023-03-14T04:03:18;5.57;;;4.18;;
48805;SDS011;34625;47.176;27.548;2023-03-14T04:05:44;5.65;;;3.92;;
48805;SDS011;34625;47.176;27.548;2023-03-14T04:08:10;4.30;;;3.58;;
48805;SDS011;34625;47.176;27.548;2023-03-14T04:10:36;4.72;;;2.97;;
48805;SDS011;34625;47.176;27.548;2023-03-14T04:13:07;4.68;;;3.05;;
48805;SDS011;34625;47.176;27.548;2023-03-14T04:15:34;7.25;;;3.80;;
48805;SDS011;34625;47.176;27.548;2023-03-14T04:18:07;4.78;;;3.45;;
48805;SDS011;34625;47.176;27.548;2023-03-14T04:20:34;3.58;;;2.92;;
48805;SDS011;34625;47.176;27.548;2023-03-14T04:23:01;4.75;;;3.58;;
48805;SDS011;34625;47.176;27.548;2023-03-14T04:25:27;4.57;;;3.65;;
48805;SDS011;34625;47.176;27.548;2023-03-14T04:27:56;4.38;;;3.38;;
48805;SDS011;34625;47.176;27.548;2023-03-14T04:30:25;4.55;;;3.63;;
48805;SDS011;34625;47.176;27.548;2023-03-14T04:32:55;5.63;;;3.55;;
48805;SDS011;34625;47.176;27.548;2023-03-14T04:35:23;6.00;;;3.30;;
48805;SDS011;34625;47.176;27.548;2023-03-14T04:37:53;4.63;;;3.13;;
48805;SDS011;34625;47.176;27.548;2023-03-14T04:40:20;8.13;;;3.10;;
48805;SDS011;34625;47.176;27.548;2023-03-14T04:42:48;5.45;;;3.95;;
48805;SDS011;34625;47.176;27.548;2023-03-14T04:45:15;7.13;;;3.65;;
48805;SDS011;34625;47.176;27.548;2023-03-14T04:47:42;6.78;;;3.15;;
48805;SDS011;34625;47.176;27.548;2023-03-14T04:50:11;3.13;;;1.77;;
48805;SDS011;34625;47.176;27.548;2023-03-14T04:52:37;4.97;;;3.50;;
48805;SDS011;34625;47.176;27.548;2023-03-14T04:55:04;4.93;;;3.30;;
48805;SDS011;34625;47.176;27.548;2023-03-14T04:57:30;4.80;;;2.95;;
48805;SDS011;34625;47.176;27.548;2023-03-14T04:59:57;6.68;;;3.53;;
48805;SDS011;34625;47.176;27.548;2023-03-14T05:02:44;5.13;;;3.40;;
48805;SDS011;34625;47.176;27.548;2023-03-14T05:05:18;4.55;;;3.20;;
48805;SDS011;34625;47.176;27.548;2023-03-14T05:07:59;2.45;;;1.95;;
48805;SDS011;34625;47.176;27.548;2023-03-14T05:10:40;4.35;;;2.97;;
48805;SDS011;34625;47.176;27.548;2023-03-14T05:13:24;6.05;;;3.72;;
48805;SDS011;34625;47.176;27.548;2023-03-14T05:16:08;6.45;;;3.97;;
48805;SDS011;34625;47.176;27.548;2023-03-14T05:18:44;4.22;;;3.28;;
48805;SDS011;34625;47.176;27.548;2023-03-14T05:21:32;7.03;;;3.72;;
48805;SDS011;34625;47.176;27.548;2023-03-14T05:24:16;6.93;;;3.30;;
48805;SDS011;34625;47.176;27.548;2023-03-14T05:27:08;6.85;;;4.07;;
48805;SDS011;34625;47.176;27.548;2023-03-14T05:30:04;3.58;;;2.25;;
48805;SDS011;34625;47.176;27.548;2023-03-14T05:32:41;5.88;;;3.97;;
48805;SDS011;34625;47.176;27.548;2023-03-14T05:35:30;4.00;;;2.88;;
48805;SDS011;34625;47.176;27.548;2023-03-14T05:38:26;6.82;;;3.65;;
48805;SDS011;34625;47.176;27.548;2023-03-14T05:41:15;4.00;;;3.10;;
48805;SDS011;34625;47.176;27.548;2023-03-14T05:43:59;8.57;;;3.80;;
48805;SDS011;34625;47.176;27.548;2023-03-14T05:46:55;3.75;;;3.08;;
48805;SDS011;34625;47.176;27.548;2023-03-14T05:49:49;6.30;;;3.60;;
48805;SDS011;34625;47.176;27.548;2023-03-14T05:52:38;3.97;;;3.13;;
48805;SDS011;34625;47.176;27.548;2023-03-14T05:55:07;6.03;;;3.50;;
48805;SDS011;34625;47.176;27.548;2023-03-14T05:57:54;3.67;;;2.72;;
48805;SDS011;34625;47.176;27.548;2023-03-14T06:00:38;6.57;;;3.95;;
48805;SDS011;34625;47.176;27.548;2023-03-14T06:03:34;9.27;;;3.78;;
48805;SDS011;34625;47.176;27.548;2023-03-14T06:06:00;4.75;;;3.50;;
48805;SDS011;34625;47.176;27.548;2023-03-14T06:08:27;5.50;;;3.33;;
48805;SDS011;34625;47.176;27.548;2023-03-14T06:10:54;4.93;;;3.70;;
48805;SDS011;34625;47.176;27.548;2023-03-14T06:13:25;6.38;;;4.18;;
48805;SDS011;34625;47.176;27.548;2023-03-14T06:15:51;6.72;;;5.53;;
48805;SDS011;34625;47.176;27.548;2023-03-14T06:18:18;8.75;;;6.72;;
48805;SDS011;34625;47.176;27.548;2023-03-14T06:20:44;9.10;;;5.75;;
48805;SDS011;34625;47.176;27.548;2023-03-14T06:23:16;6.70;;;4.30;;
48805;SDS011;34625;47.176;27.548;2023-03-14T06:25:43;4.55;;;3.47;;
48805;SDS011;34625;47.176;27.548;2023-03-14T06:28:09;3.83;;;3.33;;
48805;SDS011;34625;47.176;27.548;2023-03-14T06:30:35;5.07;;;3.05;;
48805;SDS011;34625;47.176;27.548;2023-03-14T06:33:01;4.57;;;3.65;;
48805;SDS011;34625;47.176;27.548;2023-03-14T06:35:28;5.70;;;3.70;;
48805;SDS011;34625;47.176;27.548;2023-03-14T06:37:54;8.77;;;2.67;;
48805;SDS011;34625;47.176;27.548;2023-03-14T06:40:21;13.00;;;4.43;;
48805;SDS011;34625;47.176;27.548;2023-03-14T06:43:03;7.03;;;4.32;;
48805;SDS011;34625;47.176;27.548;2023-03-14T06:45:30;5.28;;;3.35;;
48805;SDS011;34625;47.176;27.548;2023-03-14T06:47:58;5.15;;;2.63;;
48805;SDS011;34625;47.176;27.548;2023-03-14T06:50:33;3.90;;;3.00;;
48805;SDS011;34625;47.176;27.548;2023-03-14T06:52:59;2.78;;;2.38;;
48805;SDS011;34625;47.176;27.548;2023-03-14T06:55:26;4.30;;;2.83;;
48805;SDS011;34625;47.176;27.548;2023-03-14T06:57:53;6.22;;;3.15;;
48805;SDS011;34625;47.176;27.548;2023-03-14T07:00:19;3.22;;;1.60;;
48805;SDS011;34625;47.176;27.548;2023-03-14T07:02:46;2.00;;;1.45;;
48805;SDS011;34625;47.176;27.548;2023-03-14T07:05:28;3.03;;;1.73;;
48805;SDS011;34625;47.176;27.548;2023-03-14T07:07:54;2.92;;;2.20;;
48805;SDS011;34625;47.176;27.548;2023-03-14T07:10:21;8.35;;;3.15;;
48805;SDS011;34625;47.176;27.548;2023-03-14T07:12:50;12.32;;;5.05;;
48805;SDS011;34625;47.176;27.548;2023-03-14T07:15:18;2.67;;;2.42;;
48805;SDS011;34625;47.176;27.548;2023-03-14T07:17:49;6.25;;;3.13;;
48805;SDS011;34625;47.176;27.548;2023-03-14T07:20:17;4.03;;;1.92;;
48805;SDS011;34625;47.176;27.548;2023-03-14T07:22:43;10.15;;;3.17;;
48805;SDS011;34625;47.176;27.548;2023-03-14T07:25:12;3.42;;;1.55;;
48805;SDS011;34625;47.176;27.548;2023-03-14T07:27:38;5.18;;;2.85;;
48805;SDS011;34625;47.176;27.548;2023-03-14T07:30:04;7.00;;;3.22;;
48805;SDS011;34625;47.176;27.548;2023-03-14T07:32:31;3.53;;;2.50;;
48805;SDS011;34625;47.176;27.548;2023-03-14T07:34:57;6.40;;;3.00;;
48805;SDS011;34625;47.176;27.548;2023-03-14T07:37:23;5.22;;;2.92;;
48805;SDS011;34625;47.176;27.548;2023-03-14T07:39:49;4.60;;;3.50;;
48805;SDS011;34625;47.176;27.548;2023-03-14T07:42:19;10.50;;;2.92;;
48805;SDS011;34625;47.176;27.548;2023-03-14T07:44:54;7.28;;;4.07;;
48805;SDS011;34625;47.176;27.548;2023-03-14T07:47:20;11.55;;;8.18;;
48805;SDS011;34625;47.176;27.548;2023-03-14T07:49:46;14.52;;;6.55;;
48805;SDS011;34625;47.176;27.548;2023-03-14T07:52:12;12.40;;;7.57;;
48805;SDS011;34625;47.176;27.548;2023-03-14T07:54:38;27.42;;;9.35;;
48805;SDS011;34625;47.176;27.548;2023-03-14T07:57:04;29.73;;;12.88;;
48805;SDS011;34625;47.176;27.548;2023-03-14T07:59:30;22.58;;;10.80;;
48805;SDS011;34625;47.176;27.548;2023-03-14T08:01:56;9.52;;;6.90;;
48805;SDS011;34625;47.176;27.548;2023-03-14T08:04:22;11.45;;;5.85;;
48805;SDS011;34625;47.176;27.548;2023-03-14T08:06:48;11.60;;;5.85;;
48805;SDS011;34625;47.176;27.548;2023-03-14T08:09:14;9.48;;;5.15;;
48805;SDS011;34625;47.176;27.548;2023-03-14T08:11:40;7.63;;;4.25;;
48805;SDS011;34625;47.176;27.548;2023-03-14T08:14:06;5.45;;;2.60;;
48805;SDS011;34625;47.176;27.548;2023-03-14T08:16:32;6.32;;;3.03;;
48805;SDS011;34625;47.176;27.548;2023-03-14T08:18:58;6.30;;;2.97;;
48805;SDS011;34625;47.176;27.548;2023-03-14T08:21:24;8.30;;;5.28;;
48805;SDS011;34625;47.176;27.548;2023-03-14T08:23:50;3.67;;;2.90;;
48805;SDS011;34625;47.176;27.548;2023-03-14T08:26:16;4.43;;;2.47;;
48805;SDS011;34625;47.176;27.548;2023-03-14T08:28:42;2.97;;;1.75;;
48805;SDS011;34625;47.176;27.548;2023-03-14T08:31:08;12.50;;;2.80;;
48805;SDS011;34625;47.176;27.548;2023-03-14T08:33:38;5.65;;;2.38;;
48805;SDS011;34625;47.176;27.548;2023-03-14T08:36:04;7.20;;;2.50;;
48805;SDS011;34625;47.176;27.548;2023-03-14T08:38:30;7.80;;;2.95;;
48805;SDS011;34625;47.176;27.548;2023-03-14T08:40:57;4.75;;;2.97;;
48805;SDS011;34625;47.176;27.548;2023-03-14T08:43:25;5.80;;;2.17;;
48805;SDS011;34625;47.176;27.548;2023-03-14T08:45:52;3.60;;;2.40;;
48805;SDS011;34625;47.176;27.548;2023-03-14T08:48:18;5.28;;;2.50;;
48805;SDS011;34625;47.176;27.548;2023-03-14T08:50:45;3.58;;;1.50;;
48805;SDS011;34625;47.176;27.548;2023-03-14T08:53:11;1.48;;;1.33;;
48805;SDS011;34625;47.176;27.548;2023-03-14T08:55:37;1.25;;;1.15;;
48805;SDS011;34625;47.176;27.548;2023-03-14T08:58:03;4.45;;;1.83;;
48805;SDS011;34625;47.176;27.548;2023-03-14T09:00:29;7.38;;;1.90;;
48805;SDS011;34625;47.176;27.548;2023-03-14T09:02:55;2.42;;;1.60;;
48805;SDS011;34625;47.176;27.548;2023-03-14T09:05:21;2.47;;;1.92;;
48805;SDS011;34625;47.176;27.548;2023-03-14T09:07:47;4.72;;;1.95;;
48805;SDS011;34625;47.176;27.548;2023-03-14T09:10:13;2.13;;;1.85;;
48805;SDS011;34625;47.176;27.548;2023-03-14T09:12:39;4.43;;;2.58;;
48805;SDS011;34625;47.176;27.548;2023-03-14T09:15:05;6.25;;;2.05;;
48805;SDS011;34625;47.176;27.548;2023-03-14T09:17:32;4.53;;;1.95;;
48805;SDS011;34625;47.176;27.548;2023-03-14T09:19:58;1.83;;;1.25;;
48805;SDS011;34625;47.176;27.548;2023-03-14T09:22:24;3.40;;;1.77;;
48805;SDS011;34625;47.176;27.548;2023-03-14T09:24:50;5.80;;;2.08;;
48805;SDS011;34625;47.176;27.548;2023-03-14T09:27:16;6.93;;;1.90;;
48805;SDS011;34625;47.176;27.548;2023-03-14T09:29:42;2.80;;;1.42;;
48805;SDS011;34625;47.176;27.548;2023-03-14T09:32:08;5.15;;;1.75;;
48805;SDS011;34625;47.176;27.548;2023-03-14T09:34:34;2.88;;;1.63;;
48805;SDS011;34625;47.176;27.548;2023-03-14T09:37:00;11.68;;;3.17;;
48805;SDS011;34625;47.176;27.548;2023-03-14T09:39:26;14.25;;;2.90;;
48805;SDS011;34625;47.176;27.548;2023-03-14T09:41:52;3.72;;;1.60;;
48805;SDS011;34625;47.176;27.548;2023-03-14T09:46:57;4.20;;;1.50;;
48805;SDS011;34625;47.176;27.548;2023-03-14T09:49:28;1.40;;;1.30;;
48805;SDS011;34625;47.176;27.548;2023-03-14T09:51:58;1.65;;;1.13;;
48805;SDS011;34625;47.176;27.548;2023-03-14T09:54:37;3.05;;;1.55;;
48805;SDS011;34625;47.176;27.548;2023-03-14T09:57:11;5.72;;;2.83;;
48805;SDS011;34625;47.176;27.548;2023-03-14T09:59:44;7.00;;;1.95;;
48805;SDS011;34625;47.176;27.548;2023-03-14T10:02:18;3.00;;;1.52;;
48805;SDS011;34625;47.176;27.548;2023-03-14T10:04:47;1.52;;;1.08;;
48805;SDS011;34625;47.176;27.548;2023-03-14T10:07:15;1.92;;;1.40;;
48805;SDS011;34625;47.176;27.548;2023-03-14T10:09:48;9.57;;;2.22;;
48805;SDS011;34625;47.176;27.548;2023-03-14T10:12:16;4.45;;;0.93;;
48805;SDS011;34625;47.176;27.548;2023-03-14T10:14:47;3.10;;;1.63;;
48805;SDS011;34625;47.176;27.548;2023-03-14T10:17:15;1.30;;;1.17;;
48805;SDS011;34625;47.176;27.548;2023-03-14T10:19:56;1.25;;;1.25;;
48805;SDS011;34625;47.176;27.548;2023-03-14T10:22:29;2.45;;;1.13;;
48805;SDS011;34625;47.176;27.548;2023-03-14T10:24:57;6.47;;;1.67;;
48805;SDS011;34625;47.176;27.548;2023-03-14T10:27:34;6.97;;;1.73;;
48805;SDS011;34625;47.176;27.548;2023-03-14T10:30:02;1.75;;;1.63;;
48805;SDS011;34625;47.176;27.548;2023-03-14T10:32:42;4.85;;;1.83;;
48805;SDS011;34625;47.176;27.548;2023-03-14T10:37:53;4.55;;;2.05;;
48805;SDS011;34625;47.176;27.548;2023-03-14T10:43:18;7.63;;;1.83;;
48805;SDS011;34625;47.176;27.548;2023-03-14T10:45:56;2.97;;;1.53;;
48805;SDS011;34625;47.176;27.548;2023-03-14T10:48:29;1.55;;;1.38;;
48805;SDS011;34625;47.176;27.548;2023-03-14T10:53:27;4.60;;;1.48;;
48805;SDS011;34625;47.176;27.548;2023-03-14T10:56:06;3.97;;;1.88;;
48805;SDS011;34625;47.176;27.548;2023-03-14T10:58:40;11.23;;;2.75;;
48805;SDS011;34625;47.176;27.548;2023-03-14T11:04:05;1.60;;;1.48;;
48805;SDS011;34625;47.176;27.548;2023-03-14T11:14:58;4.43;;;1.20;;
48805;SDS011;34625;47.176;27.548;2023-03-14T11:17:35;1.10;;;0.82;;
48805;SDS011;34625;47.176;27.548;2023-03-14T11:22:41;1.35;;;1.25;;
48805;SDS011;34625;47.176;27.548;2023-03-14T11:28:18;2.15;;;1.33;;
48805;SDS011;34625;47.176;27.548;2023-03-14T11:30:56;1.55;;;0.93;;
48805;SDS011;34625;47.176;27.548;2023-03-14T11:36:07;4.30;;;1.05;;
48805;SDS011;34625;47.176;27.548;2023-03-14T11:43:53;2.58;;;0.65;;
48805;SDS011;34625;47.176;27.548;2023-03-14T11:51:39;1.60;;;0.80;;
48805;SDS011;34625;47.176;27.548;2023-03-14T11:54:22;2.85;;;0.95;;
48805;SDS011;34625;47.176;27.548;2023-03-14T11:57:05;1.60;;;0.85;;
48805;SDS011;34625;47.176;27.548;2023-03-14T12:07:42;2.45;;;0.60;;
48805;SDS011;34625;47.176;27.548;2023-03-14T12:10:52;3.45;;;0.70;;
48805;SDS011;34625;47.176;27.548;2023-03-14T12:13:22;1.30;;;0.55;;
48805;SDS011;34625;47.176;27.548;2023-03-14T12:15:56;3.40;;;0.80;;
48805;SDS011;34625;47.176;27.548;2023-03-14T12:18:29;6.10;;;0.80;;
48805;SDS011;34625;47.176;27.548;2023-03-14T12:21:04;0.70;;;0.70;;
48805;SDS011;34625;47.176;27.548;2023-03-14T12:23:37;2.40;;;1.25;;
48805;SDS011;34625;47.176;27.548;2023-03-14T12:29:09;1.25;;;0.93;;
48805;SDS011;34625;47.176;27.548;2023-03-14T12:41:53;3.10;;;1.05;;
48805;SDS011;34625;47.176;27.548;2023-03-14T12:46:59;1.92;;;0.70;;
48805;SDS011;34625;47.176;27.548;2023-03-14T12:49:29;0.63;;;0.50;;
48805;SDS011;34625;47.176;27.548;2023-03-14T12:52:00;1.48;;;0.50;;
48805;SDS011;34625;47.176;27.548;2023-03-14T12:57:10;0.77;;;0.47;;
48805;SDS011;34625;47.176;27.548;2023-03-14T12:59:45;4.18;;;1.00;;
48805;SDS011;34625;47.176;27.548;2023-03-14T13:02:38;0.82;;;0.73;;
48805;SDS011;34625;47.176;27.548;2023-03-14T13:13:01;3.65;;;0.95;;
48805;SDS011;34625;47.176;27.548;2023-03-14T13:15:48;1.42;;;0.90;;
48805;SDS011;34625;47.176;27.548;2023-03-14T13:23:32;1.23;;;1.13;;
48805;SDS011;34625;47.176;27.548;2023-03-14T13:26:01;1.95;;;1.45;;
48805;SDS011;34625;47.176;27.548;2023-03-14T13:28:27;5.07;;;1.83;;
48805;SDS011;34625;47.176;27.548;2023-03-14T13:31:00;2.13;;;1.05;;
48805;SDS011;34625;47.176;27.548;2023-03-14T13:33:27;1.02;;;0.77;;
48805;SDS011;34625;47.176;27.548;2023-03-14T13:35:57;1.63;;;0.80;;
48805;SDS011;34625;47.176;27.548;2023-03-14T13:38:29;7.20;;;1.20;;
48805;SDS011;34625;47.176;27.548;2023-03-14T13:40:58;1.85;;;0.95;;
48805;SDS011;34625;47.176;27.548;2023-03-14T13:43:30;1.77;;;0.90;;
48805;SDS011;34625;47.176;27.548;2023-03-14T13:46:12;1.52;;;0.90;;
48805;SDS011;34625;47.176;27.548;2023-03-14T13:48:44;0.80;;;0.65;;
48805;SDS011;34625;47.176;27.548;2023-03-14T13:51:30;2.20;;;0.95;;
48805;SDS011;34625;47.176;27.548;2023-03-14T13:54:01;3.42;;;0.98;;
48805;SDS011;34625;47.176;27.548;2023-03-14T13:56:31;1.50;;;0.82;;
48805;SDS011;34625;47.176;27.548;2023-03-14T13:58:58;3.97;;;1.23;;
48805;SDS011;34625;47.176;27.548;2023-03-14T14:01:30;0.50;;;0.50;;
48805;SDS011;34625;47.176;27.548;2023-03-14T14:04:05;5.32;;;1.15;;
48805;SDS011;34625;47.176;27.548;2023-03-14T14:06:38;2.53;;;1.35;;
48805;SDS011;34625;47.176;27.548;2023-03-14T14:09:14;1.20;;;0.80;;
48805;SDS011;34625;47.176;27.548;2023-03-14T14:14:49;2.70;;;1.10;;
48805;SDS011;34625;47.176;27.548;2023-03-14T14:17:20;3.55;;;0.93;;
48805;SDS011;34625;47.176;27.548;2023-03-14T14:19:50;0.70;;;0.70;;
48805;SDS011;34625;47.176;27.548;2023-03-14T14:22:18;1.45;;;1.20;;
48805;SDS011;34625;47.176;27.548;2023-03-14T14:24:45;1.60;;;1.13;;
48805;SDS011;34625;47.176;27.548;2023-03-14T14:27:16;0.80;;;0.80;;
48805;SDS011;34625;47.176;27.548;2023-03-14T14:29:56;3.08;;;0.95;;
48805;SDS011;34625;47.176;27.548;2023-03-14T14:32:24;3.38;;;1.20;;
48805;SDS011;34625;47.176;27.548;2023-03-14T14:37:20;1.10;;;0.73;;
48805;SDS011;34625;47.176;27.548;2023-03-14T14:39:48;3.75;;;1.38;;
48805;SDS011;34625;47.176;27.548;2023-03-14T14:42:16;4.57;;;1.00;;
48805;SDS011;34625;47.176;27.548;2023-03-14T14:44:47;3.92;;;1.17;;
48805;SDS011;34625;47.176;27.548;2023-03-14T14:47:18;1.23;;;0.85;;
48805;SDS011;34625;47.176;27.548;2023-03-14T14:49:49;1.88;;;1.27;;
48805;SDS011;34625;47.176;27.548;2023-03-14T14:52:18;1.55;;;0.85;;
48805;SDS011;34625;47.176;27.548;2023-03-14T14:54:47;3.67;;;1.25;;
48805;SDS011;34625;47.176;27.548;2023-03-14T14:57:21;5.85;;;1.80;;
48805;SDS011;34625;47.176;27.548;2023-03-14T14:59:50;2.70;;;1.10;;
48805;SDS011;34625;47.176;27.548;2023-03-14T15:02:33;1.45;;;0.77;;
48805;SDS011;34625;47.176;27.548;2023-03-14T15:05:05;1.48;;;0.95;;
48805;SDS011;34625;47.176;27.548;2023-03-14T15:07:37;1.63;;;1.17;;
48805;SDS011;34625;47.176;27.548;2023-03-14T15:10:03;3.65;;;1.05;;
48805;SDS011;34625;47.176;27.548;2023-03-14T15:12:29;2.72;;;1.27;;
48805;SDS011;34625;47.176;27.548;2023-03-14T15:14:55;8.38;;;1.40;;
48805;SDS011;34625;47.176;27.548;2023-03-14T15:17:22;2.70;;;1.10;;
48805;SDS011;34625;47.176;27.548;2023-03-14T15:19:49;1.75;;;1.13;;
48805;SDS011;34625;47.176;27.548;2023-03-14T15:22:15;2.72;;;1.88;;
48805;SDS011;34625;47.176;27.548;2023-03-14T15:24:41;2.65;;;1.20;;
48805;SDS011;34625;47.176;27.548;2023-03-14T15:27:12;0.63;;;0.57;;
48805;SDS011;34625;47.176;27.548;2023-03-14T15:29:40;2.50;;;1.15;;
48805;SDS011;34625;47.176;27.548;2023-03-14T15:32:16;2.20;;;1.30;;
48805;SDS011;34625;47.176;27.548;2023-03-14T15:34:43;2.67;;;0.95;;
48805;SDS011;34625;47.176;27.548;2023-03-14T15:37:13;3.83;;;1.02;;
48805;SDS011;34625;47.176;27.548;2023-03-14T15:39:41;5.63;;;1.60;;
48805;SDS011;34625;47.176;27.548;2023-03-14T15:42:08;3.33;;;1.23;;
48805;SDS011;34625;47.176;27.548;2023-03-14T15:44:35;2.28;;;0.90;;
48805;SDS011;34625;47.176;27.548;2023-03-14T15:47:01;2.60;;;1.33;;
48805;SDS011;34625;47.176;27.548;2023-03-14T15:49:27;1.67;;;1.17;;
48805;SDS011;34625;47.176;27.548;2023-03-14T15:51:53;1.35;;;0.90;;
48805;SDS011;34625;47.176;27.548;2023-03-14T15:54:19;1.38;;;1.17;;
48805;SDS011;34625;47.176;27.548;2023-03-14T15:56:45;2.92;;;1.45;;
48805;SDS011;34625;47.176;27.548;2023-03-14T15:59:12;5.88;;;1.17;;
48805;SDS011;34625;47.176;27.548;2023-03-14T16:01:37;5.38;;;1.40;;
48805;SDS011;34625;47.176;27.548;2023-03-14T16:04:03;2.17;;;1.25;;
48805;SDS011;34625;47.176;27.548;2023-03-14T16:06:29;2.67;;;1.13;;
48805;SDS011;34625;47.176;27.548;2023-03-14T16:09:00;2.25;;;1.10;;
48805;SDS011;34625;47.176;27.548;2023-03-14T16:11:26;2.60;;;1.20;;
48805;SDS011;34625;47.176;27.548;2023-03-14T16:13:52;4.63;;;1.20;;
48805;SDS011;34625;47.176;27.548;2023-03-14T16:16:18;3.47;;;0.80;;
48805;SDS011;34625;47.176;27.548;2023-03-14T16:18:44;0.70;;;0.60;;
48805;SDS011;34625;47.176;27.548;2023-03-14T16:21:13;1.05;;;0.93;;
48805;SDS011;34625;47.176;27.548;2023-03-14T16:23:41;2.25;;;1.20;;